createdAt,value
2023-05-14T00:00:58.840Z,101681.78
2023-05-14T00:03:34.283Z,101679.53
2023-05-14T00:06:07.023Z,101681.94
2023-05-14T00:08:43.149Z,101672.84
2023-05-14T00:11:17.943Z,101674.16
2023-05-14T00:13:53.853Z,101668.75
2023-05-14T00:16:28.861Z,101670.94
2023-05-14T00:19:02.832Z,101665.53
2023-05-14T00:21:37.655Z,101665.00
2023-05-14T00:24:16.155Z,101665.63
2023-05-14T00:26:50.878Z,101661.69
2023-05-14T00:35:59.576Z,101652.69
2023-05-14T00:38:34.921Z,101651.44
2023-05-14T00:41:13.521Z,101654.59
2023-05-14T00:43:46.279Z,101649.91
2023-05-14T00:46:20.018Z,101645.06
2023-05-14T00:49:06.939Z,101644.00
2023-05-14T00:51:41.857Z,101647.09
2023-05-14T00:54:53.040Z,101644.53
2023-05-14T00:57:31.217Z,101640.69
2023-05-14T01:00:11.086Z,101639.16
2023-05-14T01:02:45.542Z,101646.69
2023-05-14T01:05:21.395Z,101644.84
2023-05-14T01:08:05.836Z,101643.13
2023-05-14T01:10:58.283Z,101637.22
2023-05-14T01:13:41.638Z,101634.97
2023-05-14T01:16:17.359Z,101641.38
2023-05-14T01:18:55.793Z,101644.13
2023-05-14T01:21:41.339Z,101644.28
2023-05-14T01:24:16.173Z,101640.34
2023-05-14T01:26:53.274Z,101642.03
2023-05-14T01:30:09.663Z,101641.16
2023-05-14T01:33:11.557Z,101640.94
2023-05-14T01:35:45.017Z,101635.72
2023-05-14T01:38:25.861Z,101633.16
2023-05-14T01:41:05.185Z,101624.38
2023-05-14T01:43:48.373Z,101626.69
2023-05-14T01:46:25.947Z,101620.03
2023-05-14T01:49:00.977Z,101625.41
2023-05-14T01:51:33.596Z,101623.59
2023-05-14T01:54:10.912Z,101622.19
2023-05-14T01:56:43.230Z,101623.31
2023-05-14T01:59:16.305Z,101625.56
2023-05-14T02:01:48.446Z,101619.34
2023-05-14T02:04:22.413Z,101621.34
2023-05-14T02:06:57.216Z,101616.22
2023-05-14T02:09:32.733Z,101620.00
2023-05-14T02:12:04.810Z,101619.84
2023-05-14T02:14:38.980Z,101618.56
2023-05-14T02:17:13.248Z,101617.25
2023-05-14T02:19:46.793Z,101614.72
2023-05-14T02:22:18.896Z,101614.44
2023-05-14T02:24:54.441Z,101616.47
2023-05-14T02:27:26.532Z,101612.03
2023-05-14T02:30:09.811Z,101610.28
2023-05-14T02:32:45.363Z,101612.72
2023-05-14T02:35:18.137Z,101611.19
2023-05-14T02:37:50.284Z,101619.72
2023-05-14T02:40:25.634Z,101613.38
2023-05-14T02:42:57.655Z,101608.97
2023-05-14T02:45:30.231Z,101606.97
2023-05-14T02:48:06.711Z,101609.56
2023-05-14T02:50:39.301Z,101610.03
2023-05-14T02:53:11.414Z,101613.56
2023-05-14T02:55:47.154Z,101611.34
2023-05-14T02:58:20.413Z,101612.66
2023-05-14T03:01:03.228Z,101604.56
2023-05-14T03:03:35.798Z,101613.81
2023-05-14T03:06:08.878Z,101614.31
2023-05-14T03:08:40.916Z,101618.19
2023-05-14T03:11:16.098Z,101616.19
2023-05-14T03:13:48.074Z,101615.72
2023-05-14T03:16:21.830Z,101623.16
2023-05-14T03:18:54.135Z,101619.13
2023-05-14T03:21:26.681Z,101621.28
2023-05-14T03:23:58.569Z,101622.16
2023-05-14T03:26:34.264Z,101610.50
2023-05-14T03:29:07.193Z,101613.53
2023-05-14T03:31:42.799Z,101607.09
2023-05-14T03:34:14.808Z,101605.47
2023-05-14T03:36:47.135Z,101609.22
2023-05-14T03:39:22.484Z,101613.09
2023-05-14T03:41:57.617Z,101603.47
2023-05-14T03:44:41.075Z,101601.63
2023-05-14T03:47:16.420Z,101598.56
2023-05-14T03:49:48.813Z,101602.63
2023-05-14T03:52:24.008Z,101604.66
2023-05-14T03:54:56.283Z,101602.63
2023-05-14T03:57:37.162Z,101602.28
2023-05-14T04:00:21.969Z,101600.59
2023-05-14T04:02:56.007Z,101596.19
2023-05-14T04:05:29.197Z,101593.00
2023-05-14T04:08:02.480Z,101584.53
2023-05-14T04:10:36.765Z,101593.69
2023-05-14T04:13:13.403Z,101595.03
2023-05-14T04:15:47.123Z,101592.81
2023-05-14T04:18:19.563Z,101587.91
2023-05-14T04:20:51.433Z,101592.16
2023-05-14T04:23:25.082Z,101591.63
2023-05-14T04:25:57.135Z,101587.41
2023-05-14T04:28:37.363Z,101585.19
2023-05-14T04:31:09.477Z,101595.50
2023-05-14T04:33:42.280Z,101597.06
2023-05-14T04:36:14.390Z,101587.38
2023-05-14T04:38:54.945Z,101584.50
2023-05-14T04:41:27.072Z,101586.19
2023-05-14T04:44:04.127Z,101580.66
2023-05-14T04:46:36.215Z,101587.91
2023-05-14T04:49:08.748Z,101585.38
2023-05-14T04:51:40.768Z,101575.53
2023-05-14T04:54:44.296Z,101580.78
2023-05-14T04:57:16.353Z,101576.19
2023-05-14T04:59:56.249Z,101581.28
2023-05-14T05:02:28.173Z,101583.78
2023-05-14T05:05:00.666Z,101584.28
2023-05-14T05:07:32.709Z,101575.09
2023-05-14T05:10:05.273Z,101572.03
2023-05-14T05:12:37.484Z,101566.53
2023-05-14T05:15:13.688Z,101569.88
2023-05-14T05:17:45.894Z,101568.91
2023-05-14T05:20:18.572Z,101571.44
2023-05-14T05:22:50.689Z,101578.69
2023-05-14T05:25:23.548Z,101568.63
2023-05-14T05:27:56.480Z,101571.44
2023-05-14T05:30:35.137Z,101570.13
2023-05-14T05:33:07.929Z,101568.31
2023-05-14T05:35:40.835Z,101572.72
2023-05-14T05:38:16.026Z,101574.16
2023-05-14T05:40:48.651Z,101567.13
2023-05-14T05:44:09.139Z,101571.34
2023-05-14T05:46:45.043Z,101568.84
2023-05-14T05:49:17.153Z,101563.53
2023-05-14T05:51:49.830Z,101563.84
2023-05-14T05:54:24.446Z,101566.94
2023-05-14T05:56:57.171Z,101563.53
2023-05-14T05:59:38.429Z,101564.09
2023-05-14T06:02:13.777Z,101560.44
2023-05-14T06:04:46.026Z,101563.44
2023-05-14T06:07:21.470Z,101564.16
2023-05-14T06:09:57.273Z,101555.00
2023-05-14T06:12:30.479Z,101561.56
2023-05-14T06:15:02.670Z,101563.94
2023-05-14T06:17:38.044Z,101558.38
2023-05-14T06:20:12.468Z,101558.88
2023-05-14T06:22:52.856Z,101560.91
2023-05-14T06:25:32.448Z,101555.25
2023-05-14T06:28:04.927Z,101553.47
2023-05-14T06:30:37.142Z,101557.28
2023-05-14T06:33:15.506Z,101552.41
2023-05-14T06:35:47.551Z,101558.50
2023-05-14T06:38:19.993Z,101563.47
2023-05-14T06:40:52.234Z,101561.25
2023-05-14T06:43:24.966Z,101560.31
2023-05-14T06:45:57.397Z,101556.19
2023-05-14T06:48:35.617Z,101558.56
2023-05-14T06:51:07.874Z,101559.94
2023-05-14T06:53:40.652Z,101565.19
2023-05-14T06:56:13.764Z,101559.69
2023-05-14T06:58:47.822Z,101557.75
2023-05-14T07:01:20.804Z,101561.16
2023-05-14T07:03:58.220Z,101567.75
2023-05-14T07:06:31.311Z,101562.91
2023-05-14T07:09:05.488Z,101559.84
2023-05-14T07:11:37.849Z,101561.50
2023-05-14T07:14:10.326Z,101551.53
2023-05-14T07:17:04.131Z,101558.91
2023-05-14T07:19:41.441Z,101554.03
2023-05-14T07:22:14.551Z,101557.69
2023-05-14T07:24:47.333Z,101546.50
2023-05-14T07:27:19.854Z,101545.31
2023-05-14T07:29:59.962Z,101542.72
2023-05-14T07:32:32.155Z,101538.56
2023-05-14T07:35:08.773Z,101547.69
2023-05-14T07:37:41.255Z,101538.94
2023-05-14T07:40:14.703Z,101537.22
2023-05-14T07:42:55.775Z,101535.97
2023-05-14T07:45:31.618Z,101529.34
2023-05-14T07:48:03.874Z,101532.78
2023-05-14T07:50:42.110Z,101528.00
2023-05-14T07:53:14.318Z,101528.63
2023-05-14T07:56:03.008Z,101518.13
2023-05-14T07:58:38.400Z,101513.69
2023-05-14T08:01:10.992Z,101519.19
2023-05-14T08:03:43.224Z,101515.97
2023-05-14T08:06:18.923Z,101522.88
2023-05-14T08:09:15.272Z,101515.88
2023-05-14T08:11:48.200Z,101513.56
2023-05-14T08:14:22.234Z,101504.03
2023-05-14T08:17:02.562Z,101510.09
2023-05-14T08:19:36.962Z,101500.81
2023-05-14T08:22:14.800Z,101510.00
2023-05-14T08:24:49.304Z,101501.78
2023-05-14T08:27:42.817Z,101505.28
2023-05-14T08:30:18.457Z,101495.13
2023-05-14T08:32:55.165Z,101494.00
2023-05-14T08:35:27.655Z,101500.53
2023-05-14T08:38:10.654Z,101499.19
2023-05-14T08:40:58.541Z,101499.50
2023-05-14T08:43:34.758Z,101488.03
2023-05-14T08:46:10.535Z,101481.22
2023-05-14T08:48:51.807Z,101485.84
2023-05-14T08:51:25.494Z,101482.72
2023-05-14T08:54:05.846Z,101484.75
2023-05-14T08:56:45.688Z,101479.69
2023-05-14T08:59:18.481Z,101467.13
2023-05-14T09:01:58.072Z,101472.72
2023-05-14T09:04:32.230Z,101464.22
2023-05-14T09:07:11.859Z,101466.75
2023-05-14T09:09:48.914Z,101463.44
2023-05-14T09:12:21.054Z,101459.56
2023-05-14T09:14:58.524Z,101462.19
2023-05-14T09:17:33.530Z,101454.72
2023-05-14T09:20:11.471Z,101446.75
2023-05-14T09:22:43.659Z,101442.66
2023-05-14T09:25:34.652Z,101434.50
2023-05-14T09:28:10.993Z,101436.16
2023-05-14T09:31:01.775Z,101428.03
2023-05-14T09:33:34.571Z,101421.19
2023-05-14T09:36:08.073Z,101410.88
2023-05-14T09:38:40.823Z,101414.34
2023-05-14T09:41:36.913Z,101415.94
2023-05-14T09:44:11.296Z,101405.28
2023-05-14T09:46:58.449Z,101405.44
2023-05-14T09:49:32.434Z,101399.53
2023-05-14T09:52:11.322Z,101401.78
2023-05-14T09:54:44.999Z,101393.63
2023-05-14T09:57:30.993Z,101394.47
2023-05-14T10:03:08.598Z,101382.09
2023-05-14T10:05:45.718Z,101384.13
2023-05-14T10:08:28.086Z,101381.47
2023-05-14T10:11:03.031Z,101369.88
2023-05-14T10:13:45.828Z,101375.19
2023-05-14T10:16:23.858Z,101371.31
2023-05-14T10:18:57.935Z,101367.13
2023-05-14T10:21:38.558Z,101367.38
2023-05-14T10:24:13.550Z,101358.59
2023-05-14T10:26:48.592Z,101363.03
2023-05-14T10:29:53.038Z,101352.47
2023-05-14T10:33:10.019Z,101351.69
2023-05-14T10:36:14.810Z,101351.53
2023-05-14T10:38:48.280Z,101339.53
2023-05-14T10:41:31.080Z,101337.69
2023-05-14T10:44:17.471Z,101338.44
2023-05-14T10:47:01.325Z,101336.06
2023-05-14T10:49:43.473Z,101327.50
2023-05-14T10:52:19.868Z,101345.69
2023-05-14T10:55:03.374Z,101338.84
2023-05-14T10:57:37.398Z,101336.00
2023-05-14T11:00:17.541Z,101323.84
2023-05-14T11:02:52.821Z,101334.38
2023-05-14T11:05:28.253Z,101335.09
2023-05-14T11:08:12.052Z,101333.31
2023-05-14T11:10:49.218Z,101329.78
2023-05-14T11:13:44.694Z,101334.22
2023-05-14T11:16:23.811Z,101318.97
2023-05-14T11:19:11.090Z,101319.19
2023-05-14T11:21:45.449Z,101314.22
2023-05-14T11:24:18.559Z,101322.84
2023-05-14T12:13:38.663Z,101260.38
2023-05-14T12:16:37.621Z,101262.59
2023-05-14T12:19:26.922Z,101263.34
2023-05-14T12:22:05.900Z,101261.53
2023-05-14T12:31:15.428Z,101243.16
2023-05-14T12:34:04.961Z,101240.69
2023-05-14T12:36:44.728Z,101234.66
2023-05-14T12:39:40.304Z,101230.50
2023-05-14T12:42:12.748Z,101223.03
2023-05-14T12:44:49.389Z,101222.19
2023-05-14T12:47:35.358Z,101229.16
2023-05-14T12:57:31.943Z,101218.44
2023-05-14T13:04:16.082Z,101220.06
2023-05-14T13:06:49.048Z,101221.97
2023-05-14T13:09:23.436Z,101218.69
2023-05-14T13:12:09.549Z,101216.78
2023-05-14T13:14:42.271Z,101212.41
2023-05-14T13:17:18.538Z,101201.38
2023-05-14T13:19:57.223Z,101196.94
2023-05-14T13:22:29.585Z,101199.47
2023-05-14T13:25:02.291Z,101202.94
2023-05-14T13:27:36.136Z,101201.94
2023-05-14T13:30:08.871Z,101193.59
2023-05-14T13:32:42.259Z,101191.53
2023-05-14T13:35:17.652Z,101177.97
2023-05-14T13:37:50.655Z,101173.34
2023-05-14T13:40:25.890Z,101180.19
2023-05-14T13:43:00.310Z,101180.66
2023-05-14T13:45:35.622Z,101186.56
2023-05-14T13:51:21.294Z,101177.31
2023-05-14T13:56:46.837Z,101171.38
2023-05-14T13:59:19.149Z,101177.81
2023-05-14T14:01:52.030Z,101168.59
2023-05-14T14:07:17.588Z,101169.47
2023-05-14T14:09:49.453Z,101162.84
2023-05-14T14:12:22.106Z,101160.25
2023-05-14T14:14:54.424Z,101154.81
2023-05-14T14:17:26.917Z,101153.28
2023-05-14T14:20:11.525Z,101148.59
2023-05-14T14:22:51.071Z,101148.97
2023-05-14T14:25:24.041Z,101143.56
2023-05-14T14:27:56.690Z,101145.59
2023-05-14T14:30:28.697Z,101138.56
2023-05-14T14:33:01.660Z,101132.97
2023-05-14T14:35:35.730Z,101134.47
2023-05-14T14:38:11.155Z,101138.50
2023-05-14T14:40:43.390Z,101126.03
2023-05-14T14:43:16.917Z,101133.22
2023-05-14T14:45:49.448Z,101130.91
2023-05-14T14:48:34.628Z,101127.97
2023-05-14T14:51:11.345Z,101124.28
2023-05-14T14:53:46.871Z,101129.81
2023-05-14T14:56:19.404Z,101114.03
2023-05-14T14:58:52.149Z,101118.69
2023-05-14T15:01:25.540Z,101114.41
2023-05-14T15:03:58.316Z,101112.75
2023-05-14T15:06:36.289Z,101105.25
2023-05-14T15:09:11.796Z,101112.31
2023-05-14T15:11:44.415Z,101100.41
2023-05-14T15:14:17.261Z,101105.03
2023-05-14T15:16:51.190Z,101092.44
2023-05-14T15:19:25.452Z,101098.22
2023-05-14T15:21:58.056Z,101094.91
2023-05-14T15:24:36.362Z,101085.53
2023-05-14T15:27:13.557Z,101089.22
2023-05-14T15:29:46.508Z,101090.06
2023-05-14T15:32:21.132Z,101094.19
2023-05-14T15:34:53.915Z,101076.56
2023-05-14T15:37:28.318Z,101078.59
2023-05-14T15:40:03.656Z,101076.69
2023-05-14T15:42:36.109Z,101068.28
2023-05-14T15:45:09.728Z,101074.91
2023-05-14T15:47:42.356Z,101071.97
2023-05-14T15:50:15.782Z,101077.34
2023-05-14T15:52:48.903Z,101067.75
2023-05-14T15:55:27.238Z,101070.19
2023-05-14T15:57:59.733Z,101069.81
2023-05-14T16:00:32.334Z,101064.34
2023-05-14T16:03:05.520Z,101059.69
2023-05-14T16:05:38.329Z,101073.22
2023-05-14T16:08:12.193Z,101050.81
2023-05-14T16:10:47.796Z,101048.16
2023-05-14T16:13:20.097Z,101045.81
2023-05-14T16:16:04.776Z,101045.25
2023-05-14T16:18:37.449Z,101047.47
2023-05-14T16:21:10.223Z,101055.84
2023-05-14T16:23:42.486Z,101054.66
2023-05-14T16:26:17.837Z,101044.41
2023-05-14T16:28:50.031Z,101044.28
2023-05-14T16:31:25.860Z,101052.50
2023-05-14T16:33:58.898Z,101041.34
2023-05-14T16:36:31.819Z,101044.50
2023-05-14T16:39:08.070Z,101037.72
2023-05-14T16:41:44.295Z,101039.47
2023-05-14T16:44:16.846Z,101038.84
2023-05-14T16:46:51.535Z,101036.78
2023-05-14T16:49:24.278Z,101033.34
2023-05-14T16:51:57.199Z,101031.44
2023-05-14T16:54:38.598Z,101033.72
2023-05-14T16:57:16.151Z,101025.06
2023-05-14T16:59:48.542Z,101028.81
2023-05-14T17:02:23.629Z,101032.56
2023-05-14T17:04:56.250Z,101027.78
2023-05-14T17:07:29.556Z,101037.00
2023-05-14T17:10:02.039Z,101033.69
2023-05-14T17:12:37.647Z,101032.00
2023-05-14T17:15:12.592Z,101028.66
2023-05-14T17:17:53.085Z,101024.03
2023-05-14T17:20:45.770Z,101030.00
2023-05-14T17:23:19.762Z,101019.91
2023-05-14T17:25:52.889Z,101020.59
2023-05-14T17:28:30.378Z,101034.25
2023-05-14T17:31:05.519Z,101030.63
2023-05-14T17:33:37.696Z,101027.06
2023-05-14T17:36:10.625Z,101030.88
2023-05-14T17:38:43.039Z,101026.47
2023-05-14T17:41:16.254Z,101028.59
2023-05-14T17:53:43.913Z,101029.16
2023-05-14T17:56:19.105Z,101027.06
2023-05-14T17:58:52.737Z,101027.47
2023-05-14T18:04:17.943Z,101030.19
2023-05-14T18:06:50.610Z,101035.03
2023-05-14T18:09:26.044Z,101034.41
2023-05-14T18:12:01.497Z,101035.09
2023-05-14T18:14:33.386Z,101026.72
2023-05-14T18:17:06.495Z,101034.06
2023-05-14T18:19:38.714Z,101028.59
2023-05-14T18:22:12.445Z,101037.66
2023-05-14T18:24:48.490Z,101035.56
2023-05-14T18:27:21.474Z,101043.97
2023-05-14T18:29:53.734Z,101034.31
2023-05-14T18:32:27.027Z,101045.25
2023-05-14T18:35:00.119Z,101046.91
2023-05-14T18:37:37.073Z,101045.22
2023-05-14T18:40:17.748Z,101046.94
2023-05-14T18:42:51.376Z,101041.09
2023-05-14T18:49:47.838Z,101050.09
2023-05-14T18:52:21.756Z,101044.84
2023-05-14T18:54:55.445Z,101049.91
2023-05-14T18:57:33.389Z,101052.19
2023-05-14T19:00:07.788Z,101047.59
2023-05-14T19:02:41.762Z,101056.59
2023-05-14T19:05:15.648Z,101051.75
2023-05-14T19:07:56.558Z,101042.78
2023-05-14T19:10:30.345Z,101051.75
2023-05-14T19:13:08.171Z,101050.09
2023-05-14T19:15:41.429Z,101049.06
2023-05-14T19:18:15.881Z,101053.44
2023-05-14T19:20:49.688Z,101053.03
2023-05-14T19:23:22.965Z,101058.41
2023-05-14T19:25:55.482Z,101049.81
2023-05-14T19:28:31.907Z,101049.19
2023-05-14T19:31:19.978Z,101046.22
2023-05-14T19:33:53.858Z,101048.72
2023-05-14T19:36:27.524Z,101040.50
2023-05-14T19:39:00.237Z,101046.06
2023-05-14T19:41:33.243Z,101035.53
2023-05-14T19:44:11.342Z,101033.63
2023-05-14T19:46:44.254Z,101033.94
2023-05-14T19:49:17.720Z,101034.91
2023-05-14T19:51:50.324Z,101028.72
2023-05-14T19:54:23.643Z,101035.31
2023-05-14T19:56:57.866Z,101025.13
2023-05-14T20:02:29.776Z,101026.88
2023-05-14T20:05:09.465Z,101024.59
2023-05-14T20:07:42.595Z,101016.78
2023-05-14T20:10:16.593Z,101013.63
2023-05-14T20:12:49.561Z,101019.81
2023-05-14T20:15:26.914Z,101015.31
2023-05-14T20:18:01.881Z,101019.34
2023-05-14T20:20:36.263Z,101016.09
2023-05-14T20:23:14.009Z,101018.94
2023-05-14T20:25:49.881Z,101013.44
2023-05-14T20:28:23.181Z,101018.75
2023-05-14T20:31:04.748Z,101016.34
2023-05-14T20:33:40.735Z,101012.25
2023-05-14T20:36:16.742Z,101005.56
2023-05-14T20:38:54.278Z,101004.91
2023-05-14T20:41:27.815Z,101006.88
2023-05-14T20:44:00.330Z,101001.38
2023-05-14T20:46:36.530Z,100997.06
2023-05-14T20:49:09.768Z,101002.72
2023-05-14T20:51:44.054Z,100992.56
2023-05-14T20:54:18.387Z,100994.22
2023-05-14T20:57:50.286Z,100989.72
2023-05-14T21:00:36.014Z,100991.47
2023-05-14T21:03:11.556Z,100992.00
2023-05-14T21:05:44.250Z,100993.59
2023-05-14T21:08:16.592Z,100988.00
2023-05-14T21:10:48.940Z,100981.75
2023-05-14T21:13:21.039Z,100979.91
2023-05-14T21:15:53.564Z,100981.56
2023-05-14T21:18:31.273Z,100975.97
2023-05-14T21:21:04.084Z,100973.28
2023-05-14T21:23:35.955Z,100977.66
2023-05-14T21:26:08.409Z,100975.16
2023-05-14T21:28:40.385Z,100963.31
2023-05-14T21:31:12.844Z,100970.38
2023-05-14T21:33:47.377Z,100959.75
2023-05-14T21:36:20.898Z,100957.06
2023-05-14T21:38:52.777Z,100953.88
2023-05-14T21:41:25.017Z,100967.94
2023-05-14T21:43:56.978Z,100961.03
2023-05-14T21:46:29.439Z,100960.75
2023-05-14T21:49:04.136Z,100956.72
2023-05-14T21:51:36.439Z,100966.09
2023-05-14T21:54:10.752Z,100951.25
2023-05-14T21:56:43.241Z,100956.19
2023-05-14T21:59:15.338Z,100949.47
2023-05-14T22:02:05.481Z,100947.50
2023-05-14T22:04:41.820Z,100944.47
2023-05-14T22:07:14.299Z,100948.72
2023-05-14T22:09:46.153Z,100942.16
2023-05-14T22:12:18.597Z,100939.53
2023-05-14T22:14:53.229Z,100944.13
2023-05-14T22:17:25.783Z,100933.69
2023-05-14T22:20:00.912Z,100939.25
2023-05-14T22:22:33.205Z,100931.38
2023-05-14T22:25:05.390Z,100926.22
2023-05-14T22:27:37.770Z,100933.78
2023-05-14T22:30:11.550Z,100933.31
2023-05-14T22:32:44.199Z,100934.31
2023-05-14T22:35:19.606Z,100928.97
2023-05-14T22:37:52.031Z,100925.13
2023-05-14T22:40:24.264Z,100928.69
2023-05-14T22:42:56.528Z,100925.00
2023-05-14T22:45:28.828Z,100917.94
2023-05-14T22:48:02.620Z,100915.25
2023-05-14T22:50:58.986Z,100914.72
2023-05-14T22:53:52.966Z,100915.25
2023-05-14T22:56:25.695Z,100912.25
2023-05-14T22:59:00.713Z,100914.59
2023-05-14T23:01:35.738Z,100903.13
2023-05-14T23:04:08.592Z,100904.00
2023-05-14T23:09:29.970Z,100895.25
2023-05-14T23:12:02.047Z,100895.44
2023-05-14T23:14:34.335Z,100892.56
2023-05-14T23:17:06.253Z,100891.25
2023-05-14T23:19:38.682Z,100890.56
2023-05-14T23:22:13.510Z,100891.78
2023-05-14T23:24:45.740Z,100886.56
2023-05-14T23:27:17.595Z,100878.47
2023-05-14T23:29:49.879Z,100879.63
2023-05-14T23:32:21.773Z,100877.28
2023-05-14T23:34:53.959Z,100877.94
2023-05-14T23:37:29.864Z,100872.72
2023-05-14T23:40:05.048Z,100861.09
2023-05-14T23:42:37.769Z,100864.81
2023-05-14T23:45:11.682Z,100862.31
2023-05-14T23:47:44.575Z,100862.28
2023-05-14T23:50:17.186Z,100852.72
2023-05-14T23:52:54.835Z,100845.47
2023-05-14T23:55:27.574Z,100845.81
2023-05-14T23:57:59.610Z,100834.69
